createdAt,value
2022-10-25T00:00:32.205Z,11.59
2022-10-25T00:02:58.782Z,11.54
2022-10-25T00:05:25.411Z,11.54
2022-10-25T00:07:52.020Z,11.49
2022-10-25T00:10:21.118Z,11.48
2022-10-25T00:12:51.427Z,11.47
2022-10-25T00:15:18.146Z,11.41
2022-10-25T00:17:45.452Z,11.39
2022-10-25T00:20:12.640Z,11.36
2022-10-25T00:22:39.316Z,11.36
2022-10-25T00:25:08.000Z,11.31
2022-10-25T00:27:34.990Z,11.26
2022-10-25T00:30:02.068Z,11.21
2022-10-25T00:32:28.723Z,11.20
2022-10-25T00:34:55.299Z,11.12
2022-10-25T00:37:21.901Z,11.09
2022-10-25T00:39:48.514Z,11.05
2022-10-25T00:42:21.058Z,11.03
2022-10-25T00:44:58.957Z,11.00
2022-10-25T00:47:33.209Z,10.94
2022-10-25T00:50:04.201Z,10.88
2022-10-25T00:52:34.126Z,10.84
2022-10-25T00:55:01.421Z,10.80
2022-10-25T00:57:32.654Z,10.78
2022-10-25T00:59:59.494Z,10.76
2022-10-25T01:02:26.290Z,10.76
2022-10-25T01:04:53.627Z,10.79
2022-10-25T01:07:20.266Z,10.76
2022-10-25T01:09:46.858Z,10.71
2022-10-25T01:12:13.445Z,10.73
2022-10-25T01:14:42.606Z,10.67
2022-10-25T01:17:27.441Z,10.60
2022-10-25T01:20:16.119Z,10.56
2022-10-25T01:22:48.438Z,10.52
2022-10-25T01:25:25.759Z,10.48
2022-10-25T01:28:19.533Z,10.42
2022-10-25T01:31:01.826Z,10.36
2022-10-25T01:33:38.420Z,10.32
2022-10-25T01:36:33.035Z,10.29
2022-10-25T01:39:03.645Z,10.25
2022-10-25T01:41:45.365Z,10.27
2022-10-25T01:44:25.135Z,10.26
2022-10-25T01:47:01.708Z,10.27
2022-10-25T01:49:40.373Z,10.29
2022-10-25T01:52:08.556Z,10.31
2022-10-25T01:54:35.171Z,10.35
2022-10-25T01:57:37.169Z,10.40
2022-10-25T02:00:21.100Z,10.45
2022-10-25T02:03:06.321Z,10.48
2022-10-25T02:05:47.458Z,10.55
2022-10-25T02:08:37.485Z,10.61
2022-10-25T02:11:25.884Z,10.61
2022-10-25T02:14:21.111Z,10.62
2022-10-25T02:16:54.507Z,10.63
2022-10-25T02:19:29.481Z,10.67
2022-10-25T02:21:57.235Z,10.70
2022-10-25T02:24:26.479Z,10.71
2022-10-25T02:26:53.561Z,10.71
2022-10-25T02:29:21.068Z,10.69
2022-10-25T02:31:47.843Z,10.66
2022-10-25T02:34:14.677Z,10.66
2022-10-25T02:36:41.289Z,10.64
2022-10-25T02:39:07.959Z,10.62
2022-10-25T02:41:34.584Z,10.55
2022-10-25T02:44:01.137Z,10.53
2022-10-25T02:46:27.755Z,10.55
2022-10-25T02:48:54.308Z,10.51
2022-10-25T02:51:20.943Z,10.54
2022-10-25T02:53:47.530Z,10.51
2022-10-25T02:56:17.103Z,10.51
2022-10-25T02:58:44.702Z,10.50
2022-10-25T03:01:12.399Z,10.47
2022-10-25T03:03:39.648Z,10.53
2022-10-25T03:06:07.315Z,10.47
2022-10-25T03:08:34.119Z,10.49
2022-10-25T03:11:01.004Z,10.48
2022-10-25T03:13:27.590Z,10.50
2022-10-25T03:15:54.167Z,10.53
2022-10-25T03:18:22.281Z,10.54
2022-10-25T03:20:48.882Z,10.56
2022-10-25T03:23:16.150Z,10.58
2022-10-25T03:25:42.768Z,10.60
2022-10-25T03:28:09.401Z,10.63
2022-10-25T03:30:36.047Z,10.63
2022-10-25T03:33:02.666Z,10.63
2022-10-25T03:35:29.234Z,10.59
2022-10-25T03:37:55.891Z,10.56
2022-10-25T03:40:22.517Z,10.53
2022-10-25T03:42:49.168Z,10.50
2022-10-25T03:45:15.776Z,10.48
2022-10-25T03:47:42.392Z,10.43
2022-10-25T03:50:09.506Z,10.47
2022-10-25T03:52:36.183Z,10.49
2022-10-25T03:55:02.927Z,10.53
2022-10-25T03:57:29.595Z,10.54
2022-10-25T03:59:57.829Z,10.57
2022-10-25T04:02:24.482Z,10.59
2022-10-25T04:04:51.081Z,10.62
2022-10-25T04:07:17.829Z,10.69
2022-10-25T04:09:44.873Z,10.74
2022-10-25T04:12:11.817Z,10.78
2022-10-25T04:14:38.596Z,10.86
2022-10-25T04:17:05.211Z,10.94
2022-10-25T04:19:31.782Z,11.04
2022-10-25T04:21:58.393Z,11.28
2022-10-25T04:24:24.968Z,11.35
2022-10-25T04:26:51.571Z,11.44
2022-10-25T04:29:18.129Z,11.62
2022-10-25T04:31:44.709Z,11.71
2022-10-25T04:34:11.317Z,11.66
2022-10-25T04:36:39.135Z,11.63
2022-10-25T04:39:05.790Z,11.58
2022-10-25T04:41:32.469Z,11.60
2022-10-25T04:43:59.085Z,11.52
2022-10-25T04:46:25.738Z,11.52
2022-10-25T04:48:52.334Z,11.52
2022-10-25T04:51:19.222Z,11.57
2022-10-25T04:53:45.833Z,11.52
2022-10-25T04:56:14.423Z,11.50
2022-10-25T04:58:41.542Z,11.48
2022-10-25T05:01:13.238Z,11.44
2022-10-25T05:03:40.565Z,11.44
2022-10-25T05:06:15.221Z,11.43
2022-10-25T05:08:44.022Z,11.40
2022-10-25T05:11:11.890Z,11.43
2022-10-25T05:13:39.820Z,11.42
2022-10-25T05:16:07.289Z,11.46
2022-10-25T05:18:34.807Z,11.45
2022-10-25T05:21:04.261Z,11.47
2022-10-25T05:23:31.496Z,11.43
2022-10-25T05:26:04.975Z,11.47
2022-10-25T05:28:32.134Z,11.44
2022-10-25T05:31:02.935Z,11.44
2022-10-25T05:33:29.578Z,11.44
2022-10-25T05:35:56.214Z,11.45
2022-10-25T05:38:22.813Z,11.42
2022-10-25T05:40:57.168Z,11.45
2022-10-25T05:43:24.163Z,11.44
2022-10-25T05:45:51.273Z,11.46
2022-10-25T05:48:18.937Z,11.47
2022-10-25T05:50:45.758Z,11.49
2022-10-25T05:53:12.493Z,11.51
2022-10-25T05:55:39.126Z,11.53
2022-10-25T05:58:05.792Z,11.53
2022-10-25T06:00:32.417Z,11.50
2022-10-25T06:03:01.414Z,11.54
2022-10-25T06:05:28.298Z,11.56
2022-10-25T06:07:55.138Z,11.65
2022-10-25T06:10:21.709Z,11.78
2022-10-25T06:12:48.516Z,11.78
2022-10-25T06:15:15.333Z,11.86
2022-10-25T06:17:41.972Z,11.88
2022-10-25T06:20:08.989Z,11.84
2022-10-25T06:22:35.645Z,11.88
2022-10-25T06:25:02.215Z,11.79
2022-10-25T06:27:28.918Z,11.98
2022-10-25T06:29:55.512Z,11.88
2022-10-25T06:32:22.167Z,11.97
2022-10-25T06:34:48.795Z,11.93
2022-10-25T06:37:15.478Z,11.91
2022-10-25T06:39:42.100Z,11.95
2022-10-25T06:42:08.787Z,11.98
2022-10-25T06:44:35.437Z,12.03
2022-10-25T06:47:16.950Z,12.09
2022-10-25T06:49:44.184Z,12.09
2022-10-25T06:52:10.900Z,12.14
2022-10-25T06:54:37.463Z,12.20
2022-10-25T06:57:04.143Z,12.21
2022-10-25T06:59:30.715Z,12.32
2022-10-25T07:01:57.509Z,12.30
2022-10-25T07:04:24.223Z,12.30
2022-10-25T07:06:52.985Z,12.31
2022-10-25T07:09:22.017Z,12.33
2022-10-25T07:11:48.647Z,12.31
2022-10-25T07:14:15.279Z,12.43
2022-10-25T07:16:41.889Z,12.38
2022-10-25T07:19:09.942Z,12.46
2022-10-25T07:21:36.772Z,12.52
2022-10-25T07:24:03.863Z,12.56
2022-10-25T07:26:33.371Z,12.74
2022-10-25T07:29:01.319Z,12.75
2022-10-25T07:31:30.053Z,12.90
2022-10-25T07:33:59.407Z,13.06
2022-10-25T07:36:29.415Z,13.15
2022-10-25T07:38:57.090Z,13.28
2022-10-25T07:41:24.574Z,13.42
2022-10-25T07:43:51.255Z,13.45
2022-10-25T07:46:18.493Z,13.43
2022-10-25T07:48:45.216Z,13.51
2022-10-25T07:51:14.279Z,13.44
2022-10-25T07:53:41.357Z,13.38
2022-10-25T07:56:12.407Z,13.34
2022-10-25T07:58:39.035Z,13.37
2022-10-25T08:01:07.976Z,13.42
2022-10-25T08:03:34.974Z,13.43
2022-10-25T08:06:01.976Z,13.51
2022-10-25T08:08:29.228Z,13.47
2022-10-25T08:10:56.518Z,13.45
2022-10-25T08:13:23.477Z,13.51
2022-10-25T08:15:51.325Z,13.67
2022-10-25T08:18:17.960Z,13.73
2022-10-25T08:21:01.210Z,13.84
2022-10-25T08:23:28.917Z,13.89
2022-10-25T08:25:55.568Z,13.93
2022-10-25T08:28:22.296Z,14.01
2022-10-25T08:30:48.951Z,14.11
2022-10-25T08:33:15.589Z,14.21
2022-10-25T08:35:42.282Z,14.23
2022-10-25T08:38:08.888Z,14.30
2022-10-25T08:40:57.036Z,14.34
2022-10-25T08:43:42.287Z,14.39
2022-10-25T08:46:13.706Z,14.39
2022-10-25T08:48:44.577Z,14.50
2022-10-25T08:51:19.842Z,14.58
2022-10-25T08:53:48.612Z,14.54
2022-10-25T08:56:17.761Z,14.57
2022-10-25T08:58:51.099Z,14.75
2022-10-25T09:01:25.681Z,14.85
2022-10-25T09:03:52.440Z,14.91
2022-10-25T09:06:29.441Z,15.00
2022-10-25T09:09:23.183Z,15.03
2022-10-25T09:12:12.879Z,15.09
2022-10-25T09:14:54.123Z,15.14
2022-10-25T09:17:23.051Z,15.15
2022-10-25T09:20:06.623Z,15.30
2022-10-25T09:22:46.335Z,15.20
2022-10-25T09:25:23.775Z,15.32
2022-10-25T09:27:59.262Z,15.33
2022-10-25T09:30:27.517Z,15.37
2022-10-25T09:33:04.507Z,15.46
2022-10-25T09:35:33.343Z,15.42
2022-10-25T09:37:59.831Z,15.35
2022-10-25T09:40:30.209Z,15.31
2022-10-25T09:43:02.131Z,15.25
2022-10-25T09:45:47.294Z,15.19
2022-10-25T09:48:27.446Z,15.13
2022-10-25T09:51:01.197Z,15.20
2022-10-25T09:53:28.915Z,15.07
2022-10-25T09:55:57.542Z,15.01
2022-10-25T09:58:26.563Z,14.95
2022-10-25T10:00:55.803Z,14.81
2022-10-25T10:03:23.103Z,14.86
2022-10-25T10:05:55.785Z,14.81
2022-10-25T10:08:22.823Z,14.76
2022-10-25T10:10:50.742Z,14.70
2022-10-25T10:13:34.293Z,14.68
2022-10-25T10:16:24.374Z,14.73
2022-10-25T10:18:51.274Z,14.61
2022-10-25T10:21:20.396Z,14.49
2022-10-25T10:24:02.795Z,14.55
2022-10-25T10:26:36.662Z,14.62
2022-10-25T10:29:11.299Z,14.59
2022-10-25T10:31:42.762Z,14.63
2022-10-25T10:34:38.910Z,14.80
2022-10-25T10:37:23.024Z,15.05
2022-10-25T10:39:55.763Z,15.38
2022-10-25T10:42:37.679Z,15.65
2022-10-25T10:45:13.678Z,15.92
2022-10-25T10:47:49.448Z,16.13
2022-10-25T10:50:25.866Z,16.00
2022-10-25T10:53:06.063Z,15.93
2022-10-25T10:55:38.474Z,15.92
2022-10-25T10:58:13.390Z,15.96
2022-10-25T11:00:40.497Z,16.07
2022-10-25T11:03:53.555Z,16.15
2022-10-25T11:06:29.742Z,16.18
2022-10-25T11:09:24.973Z,16.10
2022-10-25T11:12:11.745Z,15.95
2022-10-25T11:14:38.563Z,15.91
2022-10-25T11:17:17.015Z,15.97
2022-10-25T11:19:48.506Z,16.11
2022-10-25T11:22:21.490Z,16.10
2022-10-25T11:25:12.328Z,16.00
2022-10-25T11:28:09.314Z,15.95
2022-10-25T11:31:14.350Z,15.84
2022-10-25T11:33:43.667Z,15.79
2022-10-25T11:36:25.671Z,15.76
2022-10-25T11:38:55.807Z,15.65
2022-10-25T11:41:48.014Z,15.59
2022-10-25T11:44:41.755Z,15.54
2022-10-25T11:47:20.118Z,15.45
2022-10-25T11:50:01.308Z,15.59
2022-10-25T11:52:52.211Z,15.85
2022-10-25T11:55:40.824Z,16.09
2022-10-25T11:58:32.239Z,16.28
2022-10-25T12:01:10.491Z,16.52
2022-10-25T12:03:46.361Z,16.78
2022-10-25T12:06:37.888Z,16.91
2022-10-25T12:09:08.011Z,16.79
2022-10-25T12:11:44.415Z,16.62
2022-10-25T12:14:17.033Z,16.52
2022-10-25T12:16:44.533Z,16.51
2022-10-25T12:19:32.034Z,16.58
2022-10-25T12:22:06.541Z,16.61
2022-10-25T12:24:40.343Z,16.96
2022-10-25T12:27:08.558Z,17.22
2022-10-25T12:29:47.162Z,17.27
2022-10-25T12:32:33.703Z,17.41
2022-10-25T12:35:02.023Z,17.55
2022-10-25T12:37:38.333Z,17.39
2022-10-25T12:40:07.064Z,17.43
2022-10-25T12:42:38.419Z,17.26
2022-10-25T12:45:46.041Z,17.13
2022-10-25T12:48:37.675Z,17.12
2022-10-25T12:51:32.994Z,17.08
2022-10-25T12:54:11.642Z,17.10
2022-10-25T12:56:48.355Z,17.07
2022-10-25T12:59:15.932Z,16.94
2022-10-25T13:02:12.402Z,16.76
2022-10-25T13:05:02.014Z,16.27
2022-10-25T13:07:32.247Z,15.77
2022-10-25T13:10:07.025Z,15.33
2022-10-25T13:12:33.830Z,15.08
2022-10-25T13:15:00.958Z,14.90
2022-10-25T13:17:27.454Z,14.70
2022-10-25T13:19:56.231Z,14.62
2022-10-25T13:22:37.447Z,14.49
2022-10-25T13:25:08.434Z,14.55
2022-10-25T13:27:36.312Z,14.50
2022-10-25T13:33:26.906Z,14.47
2022-10-25T13:35:53.415Z,14.43
2022-10-25T13:38:29.117Z,14.36
2022-10-25T13:41:14.040Z,14.39
2022-10-25T13:44:03.912Z,14.18
2022-10-25T13:46:38.343Z,14.09
2022-10-25T13:49:31.639Z,14.11
2022-10-25T13:52:00.352Z,14.05
2022-10-25T13:54:51.893Z,14.07
2022-10-25T13:57:50.829Z,13.95
2022-10-25T14:00:23.713Z,13.84
2022-10-25T14:03:09.739Z,13.79
2022-10-25T14:05:54.957Z,13.72
2022-10-25T14:08:27.368Z,13.68
2022-10-25T14:10:54.662Z,13.66
2022-10-25T14:13:52.933Z,13.63
2022-10-25T14:16:26.644Z,13.59
2022-10-25T14:18:55.210Z,13.57
2022-10-25T14:21:24.196Z,13.51
2022-10-25T14:23:51.253Z,13.49
2022-10-25T14:26:21.267Z,13.47
2022-10-25T14:28:47.987Z,13.41
2022-10-25T14:31:19.548Z,13.41
2022-10-25T14:33:52.169Z,13.39
2022-10-25T14:36:29.653Z,13.39
2022-10-25T14:39:01.174Z,13.41
2022-10-25T14:41:33.369Z,13.35
2022-10-25T14:44:04.634Z,13.40
2022-10-25T14:46:31.581Z,13.25
2022-10-25T14:48:59.839Z,13.21
2022-10-25T14:51:41.303Z,13.16
2022-10-25T14:54:25.830Z,13.09
2022-10-25T14:56:58.259Z,13.02
2022-10-25T14:59:28.035Z,12.97
2022-10-25T15:02:03.404Z,12.96
2022-10-25T15:04:35.732Z,12.91
2022-10-25T15:07:03.504Z,12.85
2022-10-25T15:09:46.660Z,12.80
2022-10-25T15:12:13.242Z,12.76
2022-10-25T15:14:39.955Z,12.69
2022-10-25T15:17:23.346Z,12.65
2022-10-25T15:20:00.740Z,12.60
2022-10-25T15:22:49.209Z,12.56
2022-10-25T15:25:21.993Z,12.52
2022-10-25T15:27:52.637Z,12.48
2022-10-25T15:30:39.577Z,12.45
2022-10-25T15:33:11.404Z,12.39
2022-10-25T15:35:50.530Z,12.44
2022-10-25T15:38:17.999Z,12.35
2022-10-25T15:40:45.713Z,12.32
2022-10-25T15:43:12.379Z,12.29
2022-10-25T15:45:39.538Z,12.21
2022-10-25T15:48:08.245Z,12.15
2022-10-25T15:50:34.883Z,12.15
2022-10-25T15:53:01.543Z,12.06
2022-10-25T15:55:28.223Z,12.01
2022-10-25T15:57:55.371Z,11.94
2022-10-25T16:00:27.184Z,11.90
2022-10-25T16:02:55.083Z,11.82
2022-10-25T16:05:27.782Z,11.84
2022-10-25T16:07:54.730Z,11.75
2022-10-25T16:10:23.984Z,11.65
2022-10-25T16:12:58.509Z,11.59
2022-10-25T16:15:26.489Z,11.50
2022-10-25T16:17:53.112Z,11.41
2022-10-25T16:20:25.679Z,11.36
2022-10-25T16:22:52.677Z,11.32
2022-10-25T16:25:19.823Z,11.32
2022-10-25T16:27:47.166Z,11.29
2022-10-25T16:30:15.833Z,11.22
2022-10-25T16:32:42.602Z,11.17
2022-10-25T16:35:10.089Z,11.14
2022-10-25T16:37:37.134Z,11.10
2022-10-25T16:40:04.312Z,11.06
2022-10-25T16:42:33.084Z,10.99
2022-10-25T16:45:00.283Z,10.94
2022-10-25T16:47:27.179Z,10.85
2022-10-25T16:49:53.838Z,10.84
2022-10-25T16:52:20.906Z,10.84
2022-10-25T16:54:47.480Z,10.76
2022-10-25T16:57:14.401Z,10.68
2022-10-25T16:59:41.036Z,10.65
2022-10-25T17:02:16.580Z,10.61
2022-10-25T17:04:43.300Z,10.56
2022-10-25T17:07:09.901Z,10.55
2022-10-25T17:09:36.513Z,10.51
2022-10-25T17:12:03.452Z,10.48
2022-10-25T17:14:30.073Z,10.43
2022-10-25T17:17:00.770Z,10.45
2022-10-25T17:19:30.059Z,10.43
2022-10-25T17:21:56.773Z,10.34
2022-10-25T17:24:23.844Z,10.31
2022-10-25T17:26:50.869Z,10.26
2022-10-25T17:29:18.031Z,10.29
2022-10-25T17:31:45.269Z,10.25
2022-10-25T17:34:12.207Z,10.19
2022-10-25T17:36:39.123Z,10.19
2022-10-25T17:39:07.967Z,10.11
2022-10-25T17:41:34.897Z,10.10
2022-10-25T17:44:02.017Z,10.02
2022-10-25T17:46:31.002Z,10.01
2022-10-25T17:49:03.350Z,9.94
2022-10-25T17:51:31.705Z,9.95
2022-10-25T17:53:58.949Z,9.90
2022-10-25T17:56:27.274Z,9.83
2022-10-25T17:58:54.390Z,9.81
2022-10-25T18:01:24.370Z,9.75
2022-10-25T18:03:51.606Z,9.72
2022-10-25T18:06:19.732Z,9.72
2022-10-25T18:08:53.699Z,9.72
2022-10-25T18:11:24.267Z,9.63
2022-10-25T18:13:52.846Z,9.57
2022-10-25T18:16:22.192Z,9.60
2022-10-25T18:18:49.015Z,9.53
2022-10-25T18:21:15.818Z,9.50
2022-10-25T18:23:42.707Z,9.45
2022-10-25T18:26:12.500Z,9.45
2022-10-25T18:28:39.433Z,9.44
2022-10-25T18:31:11.801Z,9.44
2022-10-25T18:33:40.849Z,9.48
2022-10-25T18:36:12.642Z,9.43
2022-10-25T18:38:39.240Z,9.52
2022-10-25T18:41:07.567Z,9.49
2022-10-25T18:43:34.702Z,9.43
2022-10-25T18:46:02.235Z,9.39
2022-10-25T18:48:28.861Z,9.38
2022-10-25T18:50:55.542Z,9.37
2022-10-25T18:53:22.594Z,9.33
2022-10-25T18:55:53.099Z,9.30
2022-10-25T18:58:19.761Z,9.35
2022-10-25T19:00:46.940Z,9.31
2022-10-25T19:03:15.680Z,9.37
2022-10-25T19:05:42.879Z,9.39
2022-10-25T19:08:11.036Z,9.31
2022-10-25T19:10:38.587Z,9.27
2022-10-25T19:13:06.032Z,9.20
2022-10-25T19:15:32.698Z,9.18
2022-10-25T19:17:59.389Z,9.17
2022-10-25T19:20:26.659Z,9.19
2022-10-25T19:22:58.429Z,9.19
2022-10-25T19:25:29.610Z,9.18
2022-10-25T19:27:56.651Z,9.19
2022-10-25T19:30:23.405Z,9.28
2022-10-25T19:32:50.315Z,9.23
2022-10-25T19:35:17.044Z,9.23
2022-10-25T19:37:43.780Z,9.22
2022-10-25T19:40:11.341Z,9.26
2022-10-25T19:42:38.309Z,9.14
2022-10-25T19:45:05.747Z,9.13
2022-10-25T19:47:34.331Z,9.10
2022-10-25T19:50:01.446Z,9.00
2022-10-25T19:52:28.132Z,8.96
2022-10-25T19:54:54.746Z,8.89
2022-10-25T19:57:21.411Z,8.87
2022-10-25T19:59:48.164Z,8.80
2022-10-25T20:02:14.930Z,8.75
2022-10-25T20:04:41.704Z,8.74
2022-10-25T20:07:08.399Z,8.65
2022-10-25T20:09:35.058Z,8.70
2022-10-25T20:12:01.754Z,8.67
2022-10-25T20:14:30.862Z,8.62
2022-10-25T20:16:57.611Z,8.57
2022-10-25T20:19:24.480Z,8.56
2022-10-25T20:21:51.377Z,8.53
2022-10-25T20:24:17.989Z,8.48
2022-10-25T20:26:44.724Z,8.45
2022-10-25T20:29:17.196Z,8.44
2022-10-25T20:31:47.005Z,8.40
2022-10-25T20:34:13.751Z,8.35
2022-10-25T20:36:40.445Z,8.29
2022-10-25T20:39:07.276Z,8.26
2022-10-25T20:41:35.391Z,8.26
2022-10-25T20:44:05.751Z,8.19
2022-10-25T20:46:33.463Z,8.18
2022-10-25T20:49:00.543Z,8.13
2022-10-25T20:51:27.331Z,8.12
2022-10-25T20:53:53.988Z,8.09
2022-10-25T20:56:21.686Z,8.07
2022-10-25T20:58:48.305Z,8.03
2022-10-25T21:01:15.384Z,8.01
2022-10-25T21:03:42.223Z,8.00
2022-10-25T21:06:12.314Z,7.96
2022-10-25T21:08:39.191Z,8.00
2022-10-25T21:11:13.238Z,7.90
2022-10-25T21:13:40.065Z,7.85
2022-10-25T21:16:08.260Z,7.81
2022-10-25T21:18:36.086Z,7.78
2022-10-25T21:21:08.293Z,7.76
2022-10-25T21:23:35.058Z,7.70
2022-10-25T21:26:04.134Z,7.68
2022-10-25T21:28:35.719Z,7.68
2022-10-25T21:31:03.548Z,7.63
2022-10-25T21:33:30.156Z,7.61
2022-10-25T21:36:09.180Z,7.61
2022-10-25T21:38:36.077Z,7.58
2022-10-25T21:41:14.532Z,7.60
2022-10-25T21:43:43.505Z,7.61
2022-10-25T21:46:10.308Z,7.56
2022-10-25T21:48:37.588Z,7.55
2022-10-25T21:51:04.419Z,7.56
2022-10-25T21:53:31.395Z,7.53
2022-10-25T21:56:13.712Z,7.59
2022-10-25T21:58:44.123Z,7.61
2022-10-25T22:01:15.830Z,7.55
2022-10-25T22:03:42.498Z,7.51
2022-10-25T22:06:10.685Z,7.44
2022-10-25T22:08:37.370Z,7.43
2022-10-25T22:11:06.496Z,7.41
2022-10-25T22:13:33.627Z,7.40
2022-10-25T22:16:08.915Z,7.41
2022-10-25T22:18:36.249Z,7.35
2022-10-25T22:21:11.199Z,7.34
2022-10-25T22:23:38.690Z,7.36
2022-10-25T22:26:10.955Z,7.34
2022-10-25T22:28:40.771Z,7.31
2022-10-25T22:31:16.189Z,7.32
2022-10-25T22:33:43.357Z,7.26
2022-10-25T22:36:18.335Z,7.27
2022-10-25T22:38:45.595Z,7.31
2022-10-25T22:41:20.618Z,7.28
2022-10-25T22:43:47.884Z,7.23
2022-10-25T22:46:25.116Z,7.17
2022-10-25T22:48:53.603Z,7.19
2022-10-25T22:51:21.315Z,7.26
2022-10-25T22:53:48.126Z,7.15
2022-10-25T22:56:18.261Z,7.14
2022-10-25T22:58:50.535Z,7.10
2022-10-25T23:01:26.381Z,7.08
2022-10-25T23:03:55.279Z,7.08
2022-10-25T23:06:24.444Z,7.09
2022-10-25T23:08:55.570Z,7.10
2022-10-25T23:11:30.341Z,7.05
2022-10-25T23:14:01.099Z,7.04
2022-10-25T23:16:28.771Z,7.03
2022-10-25T23:18:55.549Z,7.03
2022-10-25T23:21:24.434Z,7.06
2022-10-25T23:23:52.941Z,7.02
2022-10-25T23:26:33.911Z,7.06
2022-10-25T23:29:03.851Z,7.02
2022-10-25T23:31:31.013Z,6.98
2022-10-25T23:33:59.607Z,7.00
2022-10-25T23:36:28.411Z,6.99
2022-10-25T23:38:56.605Z,6.98
2022-10-25T23:41:23.518Z,6.98
2022-10-25T23:43:50.200Z,6.98
2022-10-25T23:46:17.012Z,6.96
2022-10-25T23:48:43.591Z,6.94
2022-10-25T23:51:12.559Z,6.92
2022-10-25T23:53:39.258Z,6.90
2022-10-25T23:56:07.627Z,6.93
2022-10-25T23:58:37.478Z,6.90
